Time;durP1;ratioP1;P1;durP2;ratioP2;P2;SDS_P1;SDS_P2;PMS_P1;PMS_P2;Temp;Humidity;BMP_temperature;BMP_pressure;BME280_temperature;BME280_humidity;BME280_pressure;Samples;Min_cycle;Max_cycle;Signal;HPM_P1;HPM_P2
2022/07/28 03:49:06;;;;;;;7.05;3.78;;;;;;;23.58;49.70;100385.78;5604889;31;138183;-57
2022/07/28 03:52:09;;;;;;;5.68;3.62;;;;;;;23.58;49.70;100385.78;5584167;31;34081;-57
2022/07/28 03:55:12;;;;;;;7.40;3.72;;;;;;;23.11;50.46;100393.25;5583812;31;33590;-57
2022/07/28 03:58:23;;;;;;;5.72;3.50;;;;;;;23.21;50.20;100398.09;5583901;32;33578;-57
2022/07/28 04:01:29;;;;;;;5.78;3.55;;;;;;;23.34;49.49;100398.66;5583687;31;34244;-57
2022/07/28 04:04:32;;;;;;;6.93;3.65;;;;;;;23.34;49.90;100393.19;5583147;31;33181;-58
2022/07/28 04:07:34;;;;;;;5.10;3.33;;;;;;;23.35;49.89;100402.22;5583224;32;33507;-57
2022/07/28 04:10:36;;;;;;;6.00;3.58;;;;;;;23.51;49.43;100399.31;5583428;32;33729;-58
2022/07/28 04:13:39;;;;;;;6.00;3.35;;;;;;;23.47;49.85;100406.69;5583951;31;33613;-57
2022/07/28 04:16:41;;;;;;;6.12;3.50;;;;;;;23.50;49.96;100395.00;5583563;32;33536;-57
2022/07/28 04:19:43;;;;;;;5.10;3.35;;;;;;;23.64;50.49;100403.44;5583555;32;34208;-58
2022/07/28 04:22:47;;;;;;;6.43;4.10;;;;;;;23.69;50.24;100392.22;5583362;32;33297;-57
2022/07/28 04:25:49;;;;;;;5.45;3.78;;;;;;;23.66;50.47;100401.12;5583354;32;33573;-57
2022/07/28 04:28:51;;;;;;;6.32;3.45;;;;;;;23.74;50.91;100407.53;5583338;32;34400;-57
2022/07/28 04:31:53;;;;;;;4.85;3.12;;;;;;;23.84;50.45;100404.97;5583727;31;33717;-57
2022/07/28 04:34:57;;;;;;;8.15;3.80;;;;;;;23.92;48.82;100414.06;5583647;32;34427;-58
2022/07/28 04:38:00;;;;;;;6.12;3.78;;;;;;;23.72;49.33;100416.13;5583810;31;33710;-57
2022/07/28 04:41:03;;;;;;;7.30;4.05;;;;;;;23.78;49.55;100411.91;5583474;31;33751;-57
2022/07/28 04:44:05;;;;;;;5.90;3.87;;;;;;;23.92;49.28;100414.84;5583637;31;33647;-57
2022/07/28 04:47:08;;;;;;;7.45;3.83;;;;;;;23.99;49.35;100410.63;5571126;31;31979;-58
2022/07/28 04:50:13;;;;;;;5.85;3.33;;;;;;;23.97;49.52;100412.94;5563467;32;33592;-58
2022/07/28 04:53:17;;;;;;;6.85;3.80;;;;;;;23.94;49.68;100411.75;5563994;32;33584;-57
2022/07/28 04:56:19;;;;;;;8.70;3.20;;;;;;;23.71;50.33;100413.72;5564129;32;33607;-57
2022/07/28 04:59:22;;;;;;;6.57;3.70;;;;;;;23.72;50.46;100418.06;5555497;32;33696;-57
2022/07/28 05:02:26;;;;;;;7.15;3.37;;;;;;;23.79;50.25;100420.91;5550719;32;33582;-57
2022/07/28 05:05:28;;;;;;;8.88;3.85;;;;;;;23.90;50.16;100422.63;5550282;32;33718;-57
2022/07/28 05:08:30;;;;;;;12.23;4.28;;;;;;;23.83;50.53;100422.53;5550815;32;33788;-57
2022/07/28 05:11:33;;;;;;;8.80;3.92;;;;;;;23.86;50.94;100424.53;5550661;32;34577;-57
2022/07/28 05:14:35;;;;;;;5.93;3.47;;;;;;;23.91;51.07;100421.47;5549971;32;34207;-57
2022/07/28 05:17:37;;;;;;;5.85;3.60;;;;;;;24.00;50.72;100431.38;5550514;32;33584;-58
2022/07/28 05:20:39;;;;;;;5.20;3.33;;;;;;;24.12;50.29;100437.41;5550600;32;33721;-57
2022/07/28 05:23:42;;;;;;;6.78;3.70;;;;;;;24.29;49.96;100432.53;5550463;32;33718;-57
2022/07/28 05:26:48;;;;;;;6.97;3.65;;;;;;;24.26;49.98;100428.59;5550347;32;33160;-55
2022/07/28 05:29:50;;;;;;;13.50;4.07;;;;;;;24.34;50.26;100441.22;5562137;32;33710;-55
2022/07/28 05:32:53;;;;;;;8.57;4.82;;;;;;;24.47;49.86;100435.53;5556109;32;33747;-55
2022/07/28 05:35:58;;;;;;;8.60;4.37;;;;;;;24.45;50.11;100435.12;5550183;32;33659;-55
2022/07/28 05:39:00;;;;;;;7.28;4.35;;;;;;;24.51;50.75;100442.66;5550147;32;34274;-55
2022/07/28 05:42:03;;;;;;;6.93;4.78;;;;;;;24.56;50.06;100444.25;5550220;32;33752;-55
2022/07/28 05:45:07;;;;;;;7.12;5.25;;;;;;;24.74;50.31;100445.25;5550246;32;33554;-55
2022/07/28 05:48:21;;;;;;;7.43;4.70;;;;;;;24.78;50.93;100457.03;5549888;32;33680;-55
2022/07/28 05:51:23;;;;;;;7.03;4.80;;;;;;;24.68;50.19;100457.72;5550174;32;33890;-55
2022/07/28 05:54:25;;;;;;;15.98;5.20;;;;;;;24.75;49.39;100455.06;5550098;32;33741;-55
2022/07/28 05:57:27;;;;;;;13.73;5.40;;;;;;;24.82;51.01;100454.34;5549793;32;34241;-55
2022/07/28 06:00:33;;;;;;;47.35;6.40;;;;;;;24.96;48.84;100457.22;5549940;32;33330;-55
2022/07/28 06:03:35;;;;;;;8.45;4.60;;;;;;;24.99;49.04;100466.66;5549888;32;34016;-55
2022/07/28 06:06:43;;;;;;;8.95;4.90;;;;;;;25.02;47.66;100458.47;5549282;32;34192;-56
2022/07/28 06:09:45;;;;;;;30.52;6.00;;;;;;;25.13;47.05;100466.03;5548949;32;34340;-55
2022/07/28 06:12:50;;;;;;;16.80;4.75;;;;;;;25.18;47.37;100472.00;5549335;32;34264;-55
2022/07/28 06:15:54;;;;;;;14.95;5.12;;;;;;;25.22;46.48;100478.28;5549306;32;33685;-56
2022/07/28 06:18:56;;;;;;;12.07;5.72;;;;;;;25.26;47.26;100475.59;5549790;32;33718;-55
2022/07/28 06:21:58;;;;;;;11.55;5.10;;;;;;;25.29;47.00;100475.62;5549837;32;33613;-55
2022/07/28 06:25:00;;;;;;;16.10;5.28;;;;;;;25.36;46.77;100482.34;5549653;32;33550;-55
2022/07/28 06:28:03;;;;;;;10.10;5.05;;;;;;;25.46;46.29;100478.91;5549757;32;33682;-55
2022/07/28 06:31:05;;;;;;;16.77;5.18;;;;;;;25.40;46.10;100480.44;5549707;32;34174;-55
2022/07/28 06:34:07;;;;;;;7.87;4.70;;;;;;;25.44;46.00;100484.78;5549752;32;33992;-55
2022/07/28 06:37:10;;;;;;;23.27;5.60;;;;;;;25.46;45.76;100481.63;5549407;32;33711;-56
2022/07/28 06:40:13;;;;;;;17.52;5.12;;;;;;;25.66;45.55;100482.19;5549587;32;34238;-55
2022/07/28 06:43:15;;;;;;;8.68;5.43;;;;;;;25.70;45.16;100489.31;5549355;32;33847;-55
2022/07/28 06:46:18;;;;;;;5.07;4.55;;;;;;;25.75;45.12;100486.19;5549450;32;34388;-55
2022/07/28 06:49:20;;;;;;;15.35;5.25;;;;;;;25.84;44.73;100496.12;5549664;32;33660;-55
2022/07/28 06:52:23;;;;;;;10.68;4.47;;;;;;;25.81;45.16;100494.13;5549745;32;33637;-55
2022/07/28 06:55:25;;;;;;;12.77;5.07;;;;;;;25.77;45.70;100488.56;5549728;32;33200;-55
2022/07/28 06:58:36;;;;;;;10.93;4.70;;;;;;;25.89;45.90;100491.03;5549416;32;33592;-55
2022/07/28 07:01:38;;;;;;;9.30;5.18;;;;;;;26.12;45.10;100498.25;5549490;32;33198;-56
2022/07/28 07:04:41;;;;;;;10.45;4.97;;;;;;;26.08;44.62;100500.97;5549395;32;33686;-55
2022/07/28 07:07:43;;;;;;;10.82;5.25;;;;;;;26.01;45.36;100496.22;5549487;32;33220;-55
2022/07/28 07:10:45;;;;;;;6.72;5.03;;;;;;;26.10;45.16;100498.66;5548949;32;33693;-55
2022/07/28 07:13:48;;;;;;;9.18;5.40;;;;;;;26.23;45.33;100496.38;5549657;32;33238;-55
2022/07/28 07:16:50;;;;;;;8.00;4.93;;;;;;;26.33;44.82;100494.84;5548825;32;33569;-55
2022/07/28 07:19:52;;;;;;;8.85;5.00;;;;;;;26.31;45.28;100499.94;5548922;32;34310;-55
2022/07/28 07:22:54;;;;;;;10.18;4.93;;;;;;;26.32;44.05;100501.50;5548808;32;34335;-55
2022/07/28 07:25:57;;;;;;;40.53;6.12;;;;;;;26.17;43.89;100501.44;5548830;32;34256;-55
2022/07/28 07:28:59;;;;;;;9.38;4.65;;;;;;;26.20;43.97;100506.16;5548624;32;34403;-55
2022/07/28 07:32:02;;;;;;;7.50;4.62;;;;;;;26.28;43.57;100500.72;5548774;32;33994;-55
2022/07/28 07:35:11;;;;;;;13.88;4.93;;;;;;;26.37;42.88;100503.91;5548321;32;33585;-55
2022/07/28 07:38:13;;;;;;;7.47;4.70;;;;;;;26.31;43.61;100499.94;5548374;32;33821;-55
2022/07/28 07:41:17;;;;;;;8.52;5.00;;;;;;;26.41;43.35;100502.75;5548579;32;33568;-55
2022/07/28 07:44:19;;;;;;;6.62;4.87;;;;;;;26.52;43.31;100500.06;5548749;32;34394;-55
2022/07/28 07:47:22;;;;;;;10.75;5.10;;;;;;;26.65;42.49;100500.53;5548301;32;34902;-55
2022/07/28 07:50:24;;;;;;;5.65;4.70;;;;;;;26.63;43.52;100503.66;5548339;32;33588;-56
2022/07/28 07:53:26;;;;;;;18.05;4.90;;;;;;;26.75;42.18;100499.00;5548866;32;33713;-55
2022/07/28 07:56:28;;;;;;;11.23;5.35;;;;;;;26.74;42.10;100498.22;5548626;32;33668;-55
2022/07/28 07:59:31;;;;;;;6.72;4.57;;;;;;;26.68;41.02;100499.75;5548379;32;33791;-55
2022/07/28 08:02:33;;;;;;;8.73;4.82;;;;;;;26.58;41.86;100497.75;5548269;32;33604;-55
2022/07/28 08:05:35;;;;;;;7.03;4.78;;;;;;;26.56;41.44;100500.91;5547910;32;34291;-55
2022/07/28 08:08:37;;;;;;;13.95;5.40;;;;;;;26.53;41.32;100498.91;5548271;32;34278;-55
2022/07/28 08:11:49;;;;;;;63.25;11.10;;;;;;;26.57;40.77;100496.97;5563475;32;33777;-56
2022/07/28 08:14:52;;;;;;;25.85;7.82;;;;;;;26.58;49.79;100497.75;5563691;32;33584;-55
2022/07/28 08:17:54;;;;;;;9.40;4.93;;;;;;;26.35;54.90;100498.00;5564452;32;33779;-55
2022/07/28 08:20:56;;;;;;;16.75;5.80;;;;;;;26.23;49.22;100496.38;5564514;32;33011;-57
2022/07/28 08:23:59;;;;;;;39.00;7.28;;;;;;;26.30;54.46;100496.41;5562310;32;34364;-55
2022/07/28 08:27:02;;;;;;;9.73;5.00;;;;;;;26.34;52.00;100499.19;5562018;32;34251;-55
2022/07/28 08:30:05;;;;;;;17.58;5.57;;;;;;;26.47;45.49;100494.94;5563445;32;33538;-55
2022/07/28 08:33:07;;;;;;;11.43;5.57;;;;;;;26.53;43.57;100498.13;5563543;32;33362;-56
2022/07/28 08:36:09;;;;;;;13.50;5.95;;;;;;;26.54;44.52;100492.22;5567341;32;34293;-56
2022/07/28 08:39:11;;;;;;;24.60;5.68;;;;;;;26.62;47.86;100499.34;5566751;32;32850;-55
2022/07/28 08:42:18;;;;;;;20.23;5.70;;;;;;;26.71;48.04;100497.00;5565793;32;33801;-55
2022/07/28 08:45:23;;;;;;;7.90;5.20;;;;;;;26.78;45.42;100500.97;5569552;31;34324;-55
2022/07/28 08:48:33;;;;;;;8.60;5.10;;;;;;;26.91;41.60;100494.72;5569950;32;33691;-55
2022/07/28 08:51:38;;;;;;;7.57;4.62;;;;;;;26.91;43.21;100497.47;5568579;32;33745;-55
2022/07/28 08:54:44;;;;;;;16.52;5.50;;;;;;;27.06;44.13;100497.53;5565277;32;33610;-55
2022/07/28 08:57:48;;;;;;;6.90;4.87;;;;;;;27.10;42.51;100492.81;5565412;32;33683;-55
2022/07/28 09:00:50;;;;;;;9.43;4.78;;;;;;;27.17;41.75;100492.84;5566185;32;33709;-56
2022/07/28 09:03:53;;;;;;;12.65;5.68;;;;;;;27.19;43.65;100492.47;5569768;32;34587;-55
2022/07/28 09:06:56;;;;;;;9.63;4.90;;;;;;;27.15;41.31;100490.50;5569690;32;33810;-55
2022/07/28 09:09:58;;;;;;;20.20;5.30;;;;;;;27.21;41.03;100487.34;5569431;32;33875;-55
2022/07/28 09:13:04;;;;;;;28.65;6.37;;;;;;;27.35;43.83;100487.34;5569680;32;34184;-55
2022/07/28 09:16:06;;;;;;;11.30;4.53;;;;;;;27.40;40.63;100489.75;5570054;32;34260;-55
2022/07/28 09:19:09;;;;;;;7.95;4.53;;;;;;;27.35;40.25;100490.12;5569675;32;33847;-55
2022/07/28 09:22:12;;;;;;;12.10;4.25;;;;;;;27.41;41.33;100488.56;5569851;32;33903;-55
2022/07/28 09:25:17;;;;;;;8.38;4.80;;;;;;;27.54;42.29;100481.47;5569432;32;34301;-56
2022/07/28 09:28:19;;;;;;;8.90;4.60;;;;;;;27.60;39.49;100479.12;5569524;32;33501;-55
2022/07/28 09:31:24;;;;;;;7.72;4.43;;;;;;;27.53;39.00;100479.12;5568363;32;34942;-55
2022/07/28 09:34:27;;;;;;;11.77;5.10;;;;;;;27.61;39.87;100477.94;5569061;32;33794;-55
2022/07/28 09:37:30;;;;;;;11.85;4.65;;;;;;;27.78;38.34;100470.87;5568573;32;33574;-55
2022/07/28 09:40:32;;;;;;;10.27;4.47;;;;;;;27.76;38.88;100467.72;5569161;32;33702;-56
2022/07/28 09:43:41;;;;;;;5.75;4.12;;;;;;;27.80;38.62;100465.75;5569761;32;34194;-55
2022/07/28 09:46:43;;;;;;;9.27;4.70;;;;;;;27.93;38.21;100464.16;5569203;31;33342;-55
2022/07/28 09:49:46;;;;;;;5.45;3.95;;;;;;;28.03;38.90;100474.37;5569084;32;33667;-56
2022/07/28 09:52:48;;;;;;;6.70;3.92;;;;;;;28.06;37.17;100462.56;5569034;32;33657;-55
2022/07/28 09:55:58;;;;;;;6.22;3.67;;;;;;;28.11;37.41;100461.34;5569650;32;33727;-55
2022/07/28 09:59:02;;;;;;;10.27;4.00;;;;;;;28.13;36.89;100470.03;5568812;32;33742;-55
2022/07/28 10:02:05;;;;;;;7.93;3.90;;;;;;;28.14;37.26;100466.06;5569087;32;33634;-56
2022/07/28 10:05:10;;;;;;;6.20;3.90;;;;;;;28.21;36.03;100465.28;5569422;32;34275;-56
2022/07/28 10:08:12;;;;;;;6.40;4.28;;;;;;;28.11;35.10;100455.84;5569467;32;33690;-55
2022/07/28 10:11:17;;;;;;;5.95;3.75;;;;;;;28.12;35.90;100453.91;5569076;32;34407;-56
2022/07/28 10:14:30;;;;;;;7.83;4.17;;;;;;;28.09;36.86;100452.72;5569157;32;34226;-55
2022/07/28 10:17:33;;;;;;;15.15;4.18;;;;;;;28.19;36.87;100457.41;5565839;32;33727;-56
2022/07/28 10:20:35;;;;;;;6.70;4.10;;;;;;;28.32;36.26;100446.75;5567235;32;34389;-55
2022/07/28 10:23:38;;;;;;;6.62;3.80;;;;;;;28.45;36.69;100442.38;5566076;32;34414;-56
2022/07/28 10:26:45;;;;;;;10.35;3.87;;;;;;;28.53;35.98;100438.41;5564857;32;33854;-55
2022/07/28 10:29:55;;;;;;;5.07;3.47;;;;;;;28.49;37.59;100437.63;5566953;32;34513;-55
2022/07/28 10:32:58;;;;;;;5.45;3.55;;;;;;;28.52;35.71;100434.06;5567007;32;34174;-55
2022/07/28 10:36:04;;;;;;;6.28;3.65;;;;;;;28.63;36.04;100428.50;5568503;32;34407;-55
2022/07/28 10:39:11;;;;;;;;;;;;;;;28.72;36.58;100428.06;5568754;32;33629;-55
2022/07/28 10:42:14;;;;;;;7.30;4.10;;;;;;;28.74;35.13;100439.47;5568901;32;33915;-56
2022/07/28 10:45:16;;;;;;;8.65;3.92;;;;;;;28.69;34.89;100424.13;5567803;32;33376;-55
2022/07/28 10:48:20;;;;;;;5.47;3.97;;;;;;;28.74;36.88;100425.69;5568781;32;33875;-55
2022/07/28 10:51:25;;;;;;;7.35;4.07;;;;;;;28.89;35.77;100426.38;5568508;32;33763;-55
2022/07/28 10:54:37;;;;;;;13.27;4.32;;;;;;;28.87;34.76;100418.50;5568772;32;34379;-55
2022/07/28 10:57:55;;;;;;;6.05;4.35;;;;;;;28.82;35.75;100418.16;5566713;32;34383;-55
2022/07/28 11:01:32;;;;;;;6.68;4.12;;;;;;;28.78;35.29;100407.94;5569086;32;34036;-55
2022/07/28 11:04:51;;;;;;;6.68;4.00;;;;;;;28.93;35.61;100399.56;5568387;32;33665;-55
2022/07/28 11:07:56;;;;;;;10.05;4.35;;;;;;;29.01;35.28;100401.91;5568682;32;33738;-55
2022/07/28 11:10:58;;;;;;;5.53;4.10;;;;;;;29.09;35.59;100401.84;5567611;32;33792;-55
2022/07/28 11:14:29;;;;;;;8.30;4.53;;;;;;;29.15;35.09;100401.00;5549671;32;34447;-55
2022/07/28 11:17:31;;;;;;;7.53;4.45;;;;;;;29.35;34.45;100392.94;5549272;32;33816;-55
2022/07/28 11:21:07;;;;;;;6.22;4.47;;;;;;;29.43;34.02;100399.19;5549167;32;34498;-55
2022/07/28 11:24:09;;;;;;;14.30;4.75;;;;;;;29.40;34.64;100395.25;5542363;32;34237;-56
2022/07/28 11:27:14;;;;;;;7.07;4.60;;;;;;;29.31;33.91;100386.66;5548875;32;33608;-55
2022/07/28 11:30:31;;;;;;;9.75;4.53;;;;;;;29.36;34.37;100393.72;5549339;32;33653;-56
2022/07/28 11:33:53;;;;;;;7.50;4.35;;;;;;;29.41;34.55;100394.06;5549206;32;34462;-55
2022/07/28 11:37:06;;;;;;;7.62;4.15;;;;;;;29.43;33.23;100379.84;5549015;32;33693;-55
2022/07/28 11:40:38;;;;;;;10.85;4.10;;;;;;;29.44;34.42;100387.72;5549023;32;33814;-56
2022/07/28 11:43:40;;;;;;;9.25;3.75;;;;;;;29.42;35.40;100384.59;5549353;32;34256;-55
2022/07/28 11:46:43;;;;;;;4.78;4.03;;;;;;;29.53;34.52;100386.47;5548632;32;33449;-55
2022/07/28 11:50:15;;;;;;;9.10;3.85;;;;;;;29.46;33.49;100379.03;5547439;32;33824;-56
2022/07/28 11:53:18;;;;;;;8.73;4.15;;;;;;;29.44;33.62;100373.94;5548749;32;33867;-55
2022/07/28 11:56:26;;;;;;;6.35;4.05;;;;;;;29.51;33.45;100373.06;5547978;32;34327;-55
2022/07/28 11:59:40;;;;;;;7.53;3.83;;;;;;;29.50;33.66;100371.50;5548225;32;34374;-55
2022/07/28 12:02:42;;;;;;;6.75;4.12;;;;;;;29.58;34.06;100366.69;5548897;32;33758;-56
2022/07/28 12:05:55;;;;;;;8.77;4.45;;;;;;;29.61;33.25;100366.69;5548772;32;33703;-56
2022/07/28 12:08:59;;;;;;;8.07;4.47;;;;;;;29.65;34.28;100369.41;5549475;32;34399;-56
2022/07/28 12:12:02;;;;;;;6.82;4.12;;;;;;;29.59;33.13;100357.19;5551092;32;33770;-55
2022/07/28 12:15:05;;;;;;;9.60;4.32;;;;;;;29.61;34.95;100354.84;5555104;32;34497;-55
2022/07/28 12:18:10;;;;;;;8.80;4.30;;;;;;;29.65;33.39;100364.66;5560849;32;33832;-55
2022/07/28 12:21:12;;;;;;;6.82;4.22;;;;;;;29.65;34.56;100363.88;5570164;32;34370;-55
2022/07/28 12:24:24;;;;;;;9.27;5.05;;;;;;;29.60;34.84;100358.78;5570700;32;34510;-56
2022/07/28 12:27:27;;;;;;;12.98;4.45;;;;;;;29.45;32.91;100356.16;5570610;32;33781;-55
2022/07/28 12:30:33;;;;;;;5.97;4.30;;;;;;;29.38;34.25;100355.44;5569394;32;33677;-55
2022/07/28 12:33:35;;;;;;;8.65;4.47;;;;;;;29.34;34.61;100358.25;5570635;32;33734;-56
2022/07/28 12:36:38;;;;;;;8.23;4.75;;;;;;;29.35;33.85;100354.28;5570609;32;34169;-56
2022/07/28 12:39:40;;;;;;;6.32;4.55;;;;;;;29.42;33.36;100353.44;5570101;32;33687;-56
2022/07/28 12:42:45;;;;;;;5.75;4.07;;;;;;;29.42;34.42;100347.91;5570346;32;33909;-56
2022/07/28 12:45:53;;;;;;;7.05;4.57;;;;;;;29.39;33.83;100352.25;5570360;31;34341;-55
2022/07/28 12:48:57;;;;;;;10.23;4.55;;;;;;;29.45;33.99;100350.62;5570148;32;33588;-55
2022/07/28 12:52:16;;;;;;;9.32;4.95;;;;;;;29.60;34.15;100343.00;5570282;32;33705;-55
2022/07/28 12:55:31;;;;;;;7.68;5.07;;;;;;;29.66;33.63;100346.09;5570234;32;34413;-56
2022/07/28 12:58:34;;;;;;;6.03;4.12;;;;;;;29.78;33.25;100342.81;5570350;32;33724;-57
2022/07/28 13:01:49;;;;;;;11.77;4.60;;;;;;;29.77;33.33;100340.44;5570430;32;33910;-55
2022/07/28 13:04:51;;;;;;;7.72;3.85;;;;;;;29.72;33.75;100336.94;5570208;32;33838;-55
2022/07/28 13:08:02;;;;;;;7.07;4.32;;;;;;;29.67;33.71;100336.63;5570183;32;33698;-56
2022/07/28 13:11:06;;;;;;;7.45;3.95;;;;;;;29.82;33.93;100332.50;5569691;32;33764;-56
2022/07/28 13:14:43;;;;;;;5.90;4.70;;;;;;;29.87;34.83;100339.56;5570138;32;34454;-55
2022/07/28 13:17:52;;;;;;;8.13;4.35;;;;;;;29.87;32.66;100328.53;5569912;32;33681;-55
2022/07/28 13:20:54;;;;;;;7.82;4.43;;;;;;;29.78;33.04;100329.00;5554902;32;34513;-55
2022/07/28 13:23:56;;;;;;;12.30;4.90;;;;;;;29.72;33.11;100327.88;5550725;32;33771;-55
2022/07/28 13:27:00;;;;;;;7.82;4.22;;;;;;;29.85;33.87;100328.13;5550553;32;34311;-55
2022/07/28 13:30:04;;;;;;;11.00;4.28;;;;;;;29.88;33.89;100322.56;5550567;32;34361;-55
2022/07/28 13:33:07;;;;;;;9.32;4.40;;;;;;;29.98;32.96;100331.91;5550284;32;33700;-55
2022/07/28 13:36:14;;;;;;;13.10;4.55;;;;;;;30.10;33.72;100327.81;5549225;32;34089;-56
2022/07/28 13:39:17;;;;;;;23.60;6.12;;;;;;;30.13;32.84;100324.22;5550228;32;33756;-56
2022/07/28 13:42:19;;;;;;;14.90;4.50;;;;;;;30.23;34.86;100317.78;5550158;32;33661;-55
2022/07/28 13:45:24;;;;;;;8.02;4.62;;;;;;;30.26;32.92;100307.87;5550345;32;34427;-55
2022/07/28 13:48:31;;;;;;;7.53;4.07;;;;;;;30.25;32.71;100320.16;5549821;32;33782;-55
2022/07/28 13:51:35;;;;;;;6.55;4.18;;;;;;;30.29;33.07;100304.28;5550257;32;33829;-55
2022/07/28 13:54:37;;;;;;;9.18;4.43;;;;;;;30.28;31.48;100303.50;5549550;32;34021;-56
2022/07/28 13:57:41;;;;;;;8.80;4.18;;;;;;;30.15;32.68;100305.25;5549767;32;33746;-55
2022/07/28 14:00:44;;;;;;;6.18;3.90;;;;;;;30.11;33.06;100304.50;5549583;32;33916;-56
2022/07/28 14:03:46;;;;;;;7.03;4.07;;;;;;;30.06;33.19;100302.19;5549962;32;33575;-56
2022/07/28 14:06:59;;;;;;;9.77;4.20;;;;;;;30.08;33.17;100300.59;5550151;32;33662;-55
2022/07/28 14:10:01;;;;;;;7.00;4.87;;;;;;;30.02;33.03;100295.94;5549369;32;33621;-55
2022/07/28 14:13:03;;;;;;;10.30;4.28;;;;;;;30.00;33.64;100299.13;5550292;32;33790;-55
2022/07/28 14:16:08;;;;;;;15.37;4.50;;;;;;;29.89;33.92;100307.53;5549795;32;33886;-55
2022/07/28 14:19:16;;;;;;;6.97;4.10;;;;;;;29.79;34.97;100300.16;5549598;32;33611;-56
2022/07/28 14:22:38;;;;;;;7.15;4.05;;;;;;;29.80;34.29;100298.19;5549842;32;33865;-56
2022/07/28 14:25:40;;;;;;;10.63;4.55;;;;;;;29.85;34.02;100298.53;5549101;32;33665;-56
2022/07/28 14:28:50;;;;;;;12.27;4.70;;;;;;;29.95;34.03;100288.53;5549753;32;33744;-56
2022/07/28 14:31:54;;;;;;;34.70;5.50;;;;;;;30.00;33.82;100288.06;5548389;32;34387;-56
2022/07/28 14:34:57;;;;;;;16.85;4.95;;;;;;;29.98;33.65;100289.69;5549840;32;34518;-55
2022/07/28 14:37:59;;;;;;;14.10;4.50;;;;;;;29.93;33.52;100290.91;5550027;32;33680;-55
2022/07/28 14:41:22;;;;;;;10.65;4.60;;;;;;;29.91;33.60;100285.81;5549694;32;33628;-56
2022/07/28 14:44:25;;;;;;;10.63;4.10;;;;;;;29.96;33.33;100285.34;5549290;32;33873;-56
2022/07/28 14:47:28;;;;;;;11.30;4.55;;;;;;;30.05;33.25;100279.31;5549773;32;34007;-56
2022/07/28 14:50:46;;;;;;;11.40;4.40;;;;;;;30.15;33.48;100283.12;5549480;32;33939;-56
2022/07/28 14:53:48;;;;;;;6.57;4.28;;;;;;;30.21;33.49;100275.19;5549662;32;33673;-55
2022/07/28 14:56:53;;;;;;;13.02;4.68;;;;;;;30.24;33.70;100277.91;5549058;32;33663;-56
2022/07/28 14:59:56;;;;;;;7.35;4.30;;;;;;;30.39;33.14;100273.69;5549534;32;33643;-56
